createdAt,value
2024-01-15T00:01:49.176Z,92.29
2024-01-15T00:07:04.460Z,92.66
2024-01-15T00:12:19.104Z,92.46
2024-01-15T00:17:33.986Z,91.10
2024-01-15T00:22:48.941Z,90.78
2024-01-15T00:28:03.832Z,89.95
2024-01-15T00:33:20.944Z,89.28
2024-01-15T00:38:35.601Z,89.39
2024-01-15T00:43:50.740Z,90.43
2024-01-15T00:49:05.584Z,90.95
2024-01-15T00:54:20.443Z,90.85
2024-01-15T00:59:35.420Z,90.43
2024-01-15T01:04:50.268Z,91.58
2024-01-15T01:10:05.290Z,94.19
2024-01-15T01:15:20.200Z,95.07
2024-01-15T01:20:35.070Z,95.28
2024-01-15T01:25:55.534Z,95.17
2024-01-15T01:31:04.795Z,95.17
2024-01-15T01:36:19.892Z,94.65
2024-01-15T01:41:34.649Z,94.34
2024-01-15T01:46:51.668Z,93.98
2024-01-15T01:52:06.560Z,93.98
2024-01-15T01:57:21.669Z,93.88
2024-01-15T02:02:36.710Z,93.98
2024-01-15T02:07:51.435Z,93.98
2024-01-15T02:13:06.577Z,95.28
2024-01-15T02:18:21.620Z,95.49
2024-01-15T02:23:38.315Z,95.28
2024-01-15T02:28:51.282Z,95.28
2024-01-15T02:34:06.308Z,95.07
2024-01-15T02:39:21.068Z,94.76
2024-01-15T02:44:35.985Z,94.34
2024-01-15T02:49:51.013Z,94.19
2024-01-15T02:55:05.746Z,94.19
2024-01-15T03:00:21.955Z,93.98
2024-01-15T03:05:35.561Z,93.88
2024-01-15T03:10:50.347Z,94.09
2024-01-15T03:16:05.268Z,93.88
2024-01-15T03:21:20.270Z,93.88
2024-01-15T03:26:35.235Z,93.98
2024-01-15T03:31:50.348Z,93.57
2024-01-15T03:37:05.407Z,93.57
2024-01-15T03:42:29.392Z,93.31
2024-01-15T03:47:36.328Z,93.00
2024-01-15T03:52:52.006Z,93.00
2024-01-15T03:58:07.080Z,93.00
2024-01-15T04:03:23.624Z,93.00
2024-01-15T04:08:37.188Z,93.41
2024-01-15T04:13:51.833Z,93.06
2024-01-15T04:19:09.115Z,92.75
2024-01-15T04:24:23.738Z,92.75
2024-01-15T04:29:40.922Z,92.65
2024-01-15T04:34:52.338Z,92.79
2024-01-15T04:40:07.338Z,92.90
2024-01-15T04:45:24.174Z,93.10
2024-01-15T04:50:37.001Z,93.41
2024-01-15T04:55:51.827Z,93.52
2024-01-15T05:01:07.099Z,93.31
2024-01-15T05:06:21.841Z,93.73
2024-01-15T05:11:36.587Z,93.73
2024-01-15T05:16:51.578Z,94.25
2024-01-15T05:22:06.416Z,94.25
2024-01-15T05:27:21.370Z,93.84
2024-01-15T05:32:36.313Z,93.73
2024-01-15T05:37:51.265Z,93.52
2024-01-15T05:43:06.275Z,94.04
2024-01-15T05:48:21.438Z,94.46
2024-01-15T05:53:36.174Z,95.19
2024-01-15T05:58:51.943Z,95.97
2024-01-15T06:04:06.211Z,96.28
2024-01-15T06:09:20.950Z,96.34
2024-01-15T06:14:36.287Z,96.13
2024-01-15T06:19:51.136Z,96.28
2024-01-15T06:25:05.788Z,95.97
2024-01-15T06:30:21.022Z,96.17
2024-01-15T06:35:35.690Z,95.82
2024-01-15T06:40:53.880Z,95.09
2024-01-15T06:46:07.719Z,94.57
2024-01-15T06:51:20.391Z,94.04
2024-01-15T06:56:35.251Z,93.69
2024-01-15T07:01:50.372Z,93.27
2024-01-15T07:07:05.365Z,93.06
2024-01-15T07:12:20.206Z,92.75
2024-01-15T07:17:34.983Z,92.65
2024-01-15T07:22:50.015Z,92.75
2024-01-15T07:28:05.158Z,92.02
2024-01-15T07:33:20.228Z,91.39
2024-01-15T07:38:35.047Z,91.71
2024-01-15T07:43:49.972Z,91.60
2024-01-15T07:49:05.207Z,91.50
2024-01-15T07:54:19.859Z,91.39
2024-01-15T07:59:34.779Z,92.02
2024-01-15T08:04:49.819Z,92.65
2024-01-15T08:10:04.735Z,92.33
2024-01-15T08:15:19.851Z,93.06
2024-01-15T08:20:34.720Z,93.79
2024-01-15T08:25:49.906Z,94.04
2024-01-15T08:31:04.930Z,93.63
2024-01-15T08:36:19.645Z,93.21
2024-01-15T08:41:34.651Z,93.37
2024-01-15T08:46:49.678Z,93.59
2024-01-15T08:52:04.439Z,93.94
2024-01-15T08:57:19.582Z,95.09
2024-01-15T09:02:34.480Z,96.17
2024-01-15T09:07:49.450Z,97.01
2024-01-15T09:13:04.489Z,97.22
2024-01-15T09:18:19.360Z,97.64
2024-01-15T09:23:34.172Z,97.85
2024-01-15T09:28:49.207Z,97.64
2024-01-15T09:34:04.372Z,97.38
2024-01-15T09:39:19.216Z,97.53
2024-01-15T09:44:34.021Z,97.85
2024-01-15T09:49:49.094Z,98.11
2024-01-15T09:55:04.062Z,97.80
2024-01-15T10:00:21.114Z,97.59
2024-01-15T10:05:36.089Z,97.53
2024-01-15T10:10:51.081Z,97.85
2024-01-15T10:16:06.079Z,98.37
2024-01-15T10:21:20.962Z,98.62
2024-01-15T10:26:35.867Z,98.83
2024-01-15T10:31:50.944Z,99.04
2024-01-15T10:37:05.730Z,99.10
2024-01-15T10:42:20.633Z,98.99
2024-01-15T10:47:35.744Z,98.89
2024-01-15T10:52:50.612Z,98.79
2024-01-15T10:58:05.500Z,98.58
2024-01-15T11:03:20.396Z,98.68
2024-01-15T11:08:35.152Z,97.32
2024-01-15T11:13:50.021Z,97.28
2024-01-15T11:19:05.046Z,96.76
2024-01-15T11:24:19.875Z,95.67
2024-01-15T11:29:34.694Z,95.56
2024-01-15T11:34:49.860Z,95.25
2024-01-15T11:40:04.624Z,95.36
2024-01-15T11:45:19.621Z,94.27
2024-01-15T11:50:34.591Z,93.29
2024-01-15T11:55:49.669Z,92.62
2024-01-15T12:01:04.644Z,91.53
2024-01-15T12:06:19.684Z,90.77
2024-01-15T12:11:34.534Z,89.66
2024-01-15T12:16:49.605Z,91.06
2024-01-15T12:22:04.322Z,90.58
2024-01-15T12:27:19.252Z,92.03
2024-01-15T12:32:36.124Z,92.46
2024-01-15T12:37:50.943Z,93.08
2024-01-15T12:43:05.713Z,94.64
2024-01-15T12:48:21.603Z,94.27
2024-01-15T12:53:35.583Z,93.02
2024-01-15T12:58:52.550Z,92.77
2024-01-15T13:04:07.405Z,93.50
2024-01-15T13:09:22.286Z,93.08
2024-01-15T13:14:38.727Z,92.62
2024-01-15T13:19:52.291Z,92.56
2024-01-15T13:25:07.167Z,93.44
2024-01-15T13:30:25.666Z,93.65
2024-01-15T13:35:39.209Z,94.90
2024-01-15T13:40:54.086Z,95.25
2024-01-15T13:46:09.015Z,95.67
2024-01-15T13:51:24.009Z,95.94
2024-01-15T13:56:38.861Z,95.31
2024-01-15T14:01:53.857Z,95.00
2024-01-15T14:07:08.953Z,94.37
2024-01-15T14:12:23.886Z,93.65
2024-01-15T14:17:39.048Z,93.85
2024-01-15T14:22:53.757Z,94.31
2024-01-15T14:28:08.702Z,94.00
2024-01-15T14:33:23.851Z,94.17
2024-01-15T14:38:38.757Z,94.63
2024-01-15T14:43:53.810Z,95.72
2024-01-15T14:49:08.929Z,97.11
2024-01-15T14:54:24.965Z,97.95
2024-01-15T14:59:38.976Z,98.16
2024-01-15T15:04:54.055Z,98.26
2024-01-15T15:10:08.921Z,98.26
2024-01-15T15:15:25.329Z,97.85
2024-01-15T15:20:38.890Z,97.32
2024-01-15T15:25:53.887Z,96.23
2024-01-15T15:31:08.895Z,95.61
2024-01-15T15:36:23.941Z,96.34
2024-01-15T15:41:38.861Z,95.67
2024-01-15T15:46:53.701Z,94.37
2024-01-15T15:52:08.700Z,94.27
2024-01-15T15:57:23.759Z,93.65
2024-01-15T16:02:38.749Z,93.96
2024-01-15T16:07:53.642Z,93.54
2024-01-15T16:13:08.747Z,92.50
2024-01-15T16:23:20.753Z,91.97
2024-01-15T16:24:07.476Z,92.40
2024-01-15T16:28:54.908Z,93.02
2024-01-15T16:34:10.797Z,92.18
2024-01-15T16:39:23.966Z,91.25
2024-01-15T16:44:38.707Z,92.91
2024-01-15T16:49:53.483Z,91.87
2024-01-15T16:55:08.517Z,91.71
2024-01-15T17:00:23.764Z,92.65
2024-01-15T17:05:38.219Z,91.18
2024-01-15T17:10:53.029Z,92.96
2024-01-15T17:16:07.872Z,90.87
2024-01-15T17:21:23.024Z,91.43
2024-01-15T17:26:41.670Z,92.47
2024-01-15T17:31:52.901Z,91.75
2024-01-15T17:37:09.806Z,92.27
2024-01-15T17:42:25.032Z,92.16
2024-01-15T17:47:39.960Z,92.21
2024-01-15T17:52:54.831Z,92.10
2024-01-15T17:58:09.582Z,92.00
2024-01-15T18:03:24.554Z,92.21
2024-01-15T18:08:39.539Z,92.41
2024-01-15T18:13:54.389Z,92.58
2024-01-15T18:19:09.321Z,91.89
2024-01-15T18:24:24.301Z,92.41
2024-01-15T18:29:39.442Z,92.31
2024-01-15T18:34:54.645Z,92.41
2024-01-15T18:40:09.305Z,92.00
2024-01-15T18:45:24.071Z,91.79
2024-01-15T18:50:39.215Z,92.00
2024-01-15T18:55:54.256Z,92.00
2024-01-15T19:01:09.081Z,92.52
2024-01-15T19:06:23.887Z,91.69
2024-01-15T19:11:39.280Z,91.79
2024-01-15T19:16:53.829Z,92.10
2024-01-15T19:22:08.605Z,91.69
2024-01-15T19:27:23.550Z,92.00
2024-01-15T19:32:38.590Z,91.58
2024-01-15T19:37:53.453Z,91.79
2024-01-15T19:43:08.505Z,91.85
2024-01-15T19:48:23.518Z,91.43
2024-01-15T19:53:38.664Z,90.39
2024-01-15T19:58:53.447Z,90.64
2024-01-15T20:04:08.510Z,90.95
2024-01-15T20:09:23.550Z,90.85
2024-01-15T20:14:38.681Z,90.28
2024-01-15T20:19:53.480Z,90.33
2024-01-15T20:25:08.343Z,90.75
2024-01-15T20:30:23.173Z,90.01
2024-01-15T20:35:38.156Z,90.33
2024-01-15T20:40:53.117Z,90.81
2024-01-15T20:46:07.941Z,92.90
2024-01-15T20:51:24.808Z,95.76
2024-01-15T20:56:39.843Z,95.97
2024-01-15T21:01:54.625Z,94.67
2024-01-15T21:07:09.457Z,93.94
2024-01-15T21:12:26.289Z,93.94
2024-01-15T21:17:41.388Z,93.59
2024-01-15T21:22:56.302Z,92.54
2024-01-15T21:28:11.144Z,92.75
2024-01-15T21:33:26.136Z,92.44
2024-01-15T21:38:41.190Z,91.91
2024-01-15T21:43:56.252Z,92.12
2024-01-15T21:49:11.070Z,93.37
2024-01-15T21:54:25.812Z,91.18
2024-01-15T21:59:40.740Z,92.75
2024-01-15T22:04:55.545Z,91.18
2024-01-15T22:10:10.732Z,90.77
2024-01-15T22:15:25.495Z,90.45
2024-01-15T22:20:40.467Z,90.97
2024-01-15T22:25:55.486Z,90.56
2024-01-15T22:31:10.347Z,89.72
2024-01-15T22:36:25.238Z,90.03
2024-01-15T22:41:40.069Z,89.56
2024-01-15T22:46:55.092Z,90.08
2024-01-15T22:52:09.992Z,89.76
2024-01-15T22:57:25.063Z,90.08
2024-01-15T23:02:40.233Z,90.50
2024-01-15T23:07:55.067Z,90.50
2024-01-15T23:24:01.853Z,91.22
